createdAt,value
2019-03-18T00:02:26.931Z,2.50
2019-03-18T00:04:58.591Z,2.40
2019-03-18T00:07:42.911Z,2.40
2019-03-18T00:10:13.263Z,2.40
2019-03-18T00:12:45.709Z,2.40
2019-03-18T00:15:15.924Z,2.30
2019-03-18T00:17:52.395Z,2.30
2019-03-18T00:20:22.915Z,2.30
2019-03-18T00:22:53.288Z,2.30
2019-03-18T00:25:23.384Z,2.20
2019-03-18T00:27:55.440Z,2.20
2019-03-18T00:30:25.531Z,2.20
2019-03-18T00:32:55.614Z,2.20
2019-03-18T00:35:28.942Z,2.20
2019-03-18T00:38:00.080Z,2.20
2019-03-18T00:40:30.147Z,2.30
2019-03-18T00:43:00.231Z,2.30
2019-03-18T00:45:31.277Z,2.30
2019-03-18T00:48:03.307Z,2.30
2019-03-18T00:50:33.399Z,2.30
2019-03-18T00:53:03.515Z,2.20
2019-03-18T00:55:34.727Z,2.20
2019-03-18T00:58:04.835Z,2.10
2019-03-18T01:01:03.579Z,2.00
2019-03-18T01:03:33.668Z,1.90
2019-03-18T01:06:03.872Z,1.90
2019-03-18T01:08:33.963Z,1.90
2019-03-18T01:11:07.056Z,1.80
2019-03-18T01:13:37.127Z,1.80
2019-03-18T01:16:07.675Z,1.80
2019-03-18T01:18:37.753Z,1.80
2019-03-18T01:21:09.151Z,1.70
2019-03-18T01:23:45.095Z,1.70
2019-03-18T01:26:15.201Z,1.80
2019-03-18T01:28:47.375Z,1.70
2019-03-18T01:31:26.735Z,1.70
2019-03-18T01:33:58.797Z,1.70
2019-03-18T01:36:29.167Z,1.70
2019-03-18T01:38:59.297Z,1.70
2019-03-18T01:41:29.367Z,1.70
2019-03-18T01:43:59.468Z,1.70
2019-03-18T01:46:29.545Z,1.60
2019-03-18T01:49:06.387Z,1.60
2019-03-18T01:51:40.508Z,1.60
2019-03-18T01:54:11.570Z,1.60
2019-03-18T01:56:41.640Z,1.60
2019-03-18T01:59:11.794Z,1.60
2019-03-18T02:01:44.551Z,1.50
2019-03-18T02:04:14.619Z,1.50
2019-03-18T02:06:44.719Z,1.40
2019-03-18T02:09:14.803Z,1.40
2019-03-18T02:11:45.414Z,1.40
2019-03-18T02:14:18.525Z,1.40
2019-03-18T02:16:49.581Z,1.30
2019-03-18T02:19:21.628Z,1.40
2019-03-18T02:22:02.103Z,1.30
2019-03-18T02:24:36.332Z,1.30
2019-03-18T02:27:09.111Z,1.30
2019-03-18T02:29:39.199Z,1.20
2019-03-18T02:32:12.125Z,1.20
2019-03-18T02:34:44.141Z,1.20
2019-03-18T02:37:15.184Z,1.20
2019-03-18T02:42:42.042Z,1.10
2019-03-18T02:45:14.419Z,1.10
2019-03-18T02:47:45.487Z,1.10
2019-03-18T02:50:16.604Z,1.10
2019-03-18T02:52:53.700Z,1.10
2019-03-18T02:55:31.801Z,1.10
2019-03-18T02:58:02.932Z,1.00
2019-03-18T03:00:36.047Z,0.90
2019-03-18T03:03:12.093Z,0.80
2019-03-18T03:05:52.033Z,0.80
2019-03-18T03:08:22.133Z,0.90
2019-03-18T03:10:56.409Z,0.90
2019-03-18T03:13:26.747Z,0.80
2019-03-18T03:15:57.848Z,0.80
2019-03-18T03:18:28.935Z,0.80
2019-03-18T03:20:59.005Z,0.80
2019-03-18T03:23:30.021Z,0.80
2019-03-18T03:26:01.063Z,0.80
2019-03-18T03:28:31.218Z,0.70
2019-03-18T03:31:04.375Z,0.70
2019-03-18T03:33:35.729Z,0.70
2019-03-18T03:36:08.069Z,0.60
2019-03-18T03:38:47.120Z,0.60
2019-03-18T03:41:18.753Z,0.60
2019-03-18T03:43:49.946Z,0.50
2019-03-18T03:46:21.992Z,0.60
2019-03-18T03:48:52.304Z,0.60
2019-03-18T03:51:29.207Z,0.60
2019-03-18T03:53:59.339Z,0.50
2019-03-18T03:56:37.438Z,0.50
2019-03-18T03:59:13.436Z,0.50
2019-03-18T04:01:55.453Z,0.50
2019-03-18T04:04:25.551Z,0.40
2019-03-18T04:06:58.257Z,0.40
2019-03-18T04:09:36.378Z,0.50
2019-03-18T04:12:11.426Z,0.50
2019-03-18T04:14:44.200Z,0.50
2019-03-18T04:17:15.233Z,0.60
2019-03-18T04:19:46.283Z,0.70
2019-03-18T04:22:22.293Z,0.70
2019-03-18T04:25:01.694Z,0.80
2019-03-18T04:27:31.761Z,0.90
2019-03-18T04:30:01.947Z,0.90
2019-03-18T04:32:39.888Z,1.00
2019-03-18T04:35:10.040Z,0.90
2019-03-18T04:37:42.092Z,0.90
2019-03-18T04:40:13.116Z,0.90
2019-03-18T04:42:45.179Z,0.80
2019-03-18T04:45:18.311Z,0.70
2019-03-18T04:47:48.464Z,0.70
2019-03-18T04:50:18.543Z,0.60
2019-03-18T04:52:51.275Z,0.60
2019-03-18T04:55:29.072Z,0.50
2019-03-18T04:58:00.301Z,0.40
2019-03-18T05:00:39.371Z,0.30
2019-03-18T05:03:15.331Z,0.30
2019-03-18T05:05:54.451Z,0.20
2019-03-18T05:08:25.615Z,0.10
2019-03-18T05:10:57.679Z,0.10
2019-03-18T05:13:32.791Z,0.00
2019-03-18T05:16:04.130Z,-0.10
2019-03-18T05:18:42.052Z,-0.10
2019-03-18T05:21:12.137Z,-0.10
2019-03-18T05:23:43.207Z,-0.10
2019-03-18T05:26:13.295Z,-0.10
2019-03-18T05:28:50.154Z,-0.10
2019-03-18T05:31:20.255Z,-0.10
2019-03-18T05:33:50.599Z,-0.10
2019-03-18T05:36:23.736Z,-0.10
2019-03-18T05:38:53.888Z,0.00
2019-03-18T05:41:23.983Z,-0.10
2019-03-18T05:43:59.921Z,0.00
2019-03-18T05:46:30.968Z,0.00
2019-03-18T05:49:01.055Z,0.00
2019-03-18T05:51:32.475Z,0.00
2019-03-18T05:54:02.707Z,0.00
2019-03-18T05:56:42.617Z,-0.10
2019-03-18T05:59:13.639Z,0.00
2019-03-18T06:01:51.724Z,0.00
2019-03-18T06:04:25.973Z,0.10
2019-03-18T06:06:56.055Z,0.00
2019-03-18T06:09:31.992Z,0.00
2019-03-18T06:12:11.419Z,0.00
2019-03-18T06:14:41.583Z,0.10
2019-03-18T06:17:11.671Z,0.10
2019-03-18T06:19:41.746Z,0.10
2019-03-18T06:22:12.768Z,0.10
2019-03-18T06:24:42.851Z,0.00
2019-03-18T06:27:13.032Z,0.00
2019-03-18T06:29:45.076Z,0.00
2019-03-18T06:32:17.812Z,0.10
2019-03-18T06:34:47.897Z,0.20
2019-03-18T06:37:17.988Z,0.20
2019-03-18T06:39:50.071Z,0.20
2019-03-18T06:42:21.091Z,0.30
2019-03-18T06:44:56.256Z,0.40
2019-03-18T06:47:29.012Z,0.60
2019-03-18T06:49:59.073Z,0.90
2019-03-18T06:52:29.159Z,1.20
2019-03-18T06:55:01.181Z,1.50
2019-03-18T06:57:33.267Z,1.70
2019-03-18T07:00:17.139Z,2.10
2019-03-18T07:02:47.219Z,2.50
2019-03-18T07:05:18.258Z,2.70
2019-03-18T07:07:48.340Z,2.70
2019-03-18T07:10:18.411Z,2.70
2019-03-18T07:12:49.515Z,2.90
2019-03-18T07:15:26.540Z,3.30
2019-03-18T07:18:02.199Z,3.60
2019-03-18T07:20:32.292Z,4.00
2019-03-18T07:23:08.179Z,4.50
2019-03-18T07:25:46.252Z,4.90
2019-03-18T07:28:26.444Z,5.10
2019-03-18T07:30:56.513Z,5.50
2019-03-18T07:33:28.571Z,5.70
2019-03-18T07:36:00.472Z,5.90
2019-03-18T07:38:31.492Z,6.00
2019-03-18T07:41:02.326Z,6.10
2019-03-18T07:43:32.384Z,6.30
2019-03-18T07:46:02.482Z,6.60
2019-03-18T07:48:37.780Z,6.70
2019-03-18T07:51:09.762Z,6.20
2019-03-18T07:53:39.932Z,6.20
2019-03-18T07:56:10.016Z,5.70
2019-03-18T07:58:40.169Z,5.30
2019-03-18T08:01:12.916Z,4.90
2019-03-18T08:03:43.900Z,5.30
2019-03-18T08:06:14.124Z,6.00
2019-03-18T08:08:45.227Z,6.50
2019-03-18T08:11:15.296Z,7.10
2019-03-18T08:13:46.360Z,6.90
2019-03-18T08:16:17.456Z,6.70
2019-03-18T08:18:47.631Z,6.40
2019-03-18T08:21:17.744Z,5.80
2019-03-18T08:23:48.772Z,6.10
2019-03-18T08:26:19.812Z,6.50
2019-03-18T08:28:50.855Z,7.10
2019-03-18T08:31:21.904Z,7.80
2019-03-18T08:33:51.985Z,8.60
2019-03-18T08:36:23.983Z,9.40
2019-03-18T08:38:54.080Z,8.60
2019-03-18T08:41:25.128Z,7.20
2019-03-18T08:43:55.375Z,6.10
2019-03-18T08:46:25.534Z,5.60
2019-03-18T08:48:56.693Z,5.10
2019-03-18T08:51:28.711Z,4.90
2019-03-18T08:53:58.799Z,4.60
2019-03-18T08:56:29.783Z,4.60
2019-03-18T08:58:59.944Z,4.70
2019-03-18T09:01:30.997Z,4.80
2019-03-18T09:04:01.120Z,5.00
2019-03-18T09:06:31.243Z,5.00
2019-03-18T09:09:02.456Z,5.10
2019-03-18T09:11:32.557Z,4.80
2019-03-18T09:14:02.616Z,4.70
2019-03-18T09:16:32.691Z,4.60
2019-03-18T09:19:08.475Z,4.50
2019-03-18T09:21:35.855Z,4.40
2019-03-18T09:24:05.916Z,4.20
2019-03-18T09:26:36.243Z,4.00
2019-03-18T09:29:06.323Z,3.90
2019-03-18T09:31:38.066Z,3.70
2019-03-18T09:34:08.260Z,3.60
2019-03-18T09:36:39.320Z,3.30
2019-03-18T09:39:09.461Z,3.20
2019-03-18T09:41:40.504Z,3.20
2019-03-18T09:44:10.588Z,3.30
2019-03-18T09:46:40.688Z,3.30
2019-03-18T09:49:21.117Z,3.50
2019-03-18T09:51:42.528Z,3.70
2019-03-18T09:54:12.615Z,3.90
2019-03-18T09:56:43.704Z,4.00
2019-03-18T09:59:13.876Z,4.30
2019-03-18T10:01:44.584Z,4.50
2019-03-18T10:04:14.738Z,4.60
2019-03-18T10:06:44.846Z,4.60
2019-03-18T10:09:14.947Z,4.70
2019-03-18T10:11:48.076Z,4.70
2019-03-18T10:14:24.495Z,4.60
2019-03-18T10:16:55.828Z,4.50
2019-03-18T10:19:33.554Z,4.40
2019-03-18T10:21:57.676Z,4.40
2019-03-18T10:24:28.588Z,4.40
2019-03-18T10:27:00.696Z,4.40
2019-03-18T10:29:31.884Z,4.30
2019-03-18T10:32:03.951Z,4.50
2019-03-18T10:34:34.016Z,4.60
2019-03-18T10:37:05.017Z,5.20
2019-03-18T10:39:42.956Z,6.60
2019-03-18T10:42:14.980Z,8.30
2019-03-18T10:44:46.036Z,10.60
2019-03-18T10:47:16.128Z,12.30
2019-03-18T10:49:47.165Z,13.20
2019-03-18T10:52:17.266Z,14.20
2019-03-18T10:54:47.390Z,14.80
2019-03-18T10:57:18.460Z,16.30
2019-03-18T10:59:48.592Z,16.90
2019-03-18T11:02:19.632Z,16.60
2019-03-18T11:04:50.656Z,16.30
2019-03-18T11:07:20.849Z,14.10
2019-03-18T11:09:51.504Z,11.80
2019-03-18T11:12:26.263Z,10.80
2019-03-18T11:14:56.376Z,13.50
2019-03-18T11:17:26.469Z,15.70
2019-03-18T11:20:00.685Z,13.80
2019-03-18T11:22:30.841Z,12.80
2019-03-18T11:25:02.956Z,13.70
2019-03-18T11:27:34.608Z,12.30
2019-03-18T11:30:14.855Z,10.80
2019-03-18T11:32:45.936Z,9.30
2019-03-18T11:35:16.013Z,8.40
2019-03-18T11:37:46.240Z,7.70
2019-03-18T11:40:34.492Z,7.20
2019-03-18T11:43:04.812Z,7.00
2019-03-18T11:45:36.900Z,7.00
2019-03-18T11:48:17.472Z,6.90
2019-03-18T11:50:53.404Z,6.50
2019-03-18T11:53:24.477Z,6.40
2019-03-18T11:55:54.923Z,6.30
2019-03-18T11:58:27.047Z,6.00
2019-03-18T12:00:57.128Z,5.90
2019-03-18T12:03:29.123Z,5.70
2019-03-18T12:06:03.228Z,5.50
2019-03-18T12:08:33.400Z,5.30
2019-03-18T12:11:03.575Z,5.10
2019-03-18T12:13:34.548Z,4.90
2019-03-18T12:16:05.619Z,4.90
2019-03-18T12:18:41.817Z,4.90
2019-03-18T12:21:15.866Z,4.90
2019-03-18T12:23:47.233Z,4.80
2019-03-18T12:26:23.324Z,4.70
2019-03-18T12:28:53.420Z,4.80
2019-03-18T12:31:23.487Z,4.80
2019-03-18T12:33:53.592Z,5.20
2019-03-18T12:36:23.677Z,5.80
2019-03-18T12:38:54.852Z,6.50
2019-03-18T12:41:26.912Z,8.50
2019-03-18T12:43:57.014Z,10.60
2019-03-18T12:46:28.084Z,10.30
2019-03-18T12:49:04.188Z,9.40
2019-03-18T12:51:34.268Z,8.70
2019-03-18T12:54:04.504Z,8.00
2019-03-18T12:56:37.656Z,7.50
2019-03-18T12:59:07.778Z,7.10
2019-03-18T13:01:37.861Z,6.70
2019-03-18T13:04:07.936Z,6.40
2019-03-18T13:06:42.101Z,6.20
2019-03-18T13:09:13.168Z,5.60
2019-03-18T13:11:44.212Z,5.40
2019-03-18T13:14:15.232Z,5.30
2019-03-18T13:16:47.300Z,5.30
2019-03-18T13:19:25.088Z,5.60
2019-03-18T13:21:55.164Z,6.10
2019-03-18T13:24:25.244Z,6.60
2019-03-18T13:26:58.685Z,7.10
2019-03-18T13:29:28.888Z,7.30
2019-03-18T13:31:59.112Z,7.70
2019-03-18T13:34:29.216Z,8.20
2019-03-18T13:37:00.232Z,9.60
2019-03-18T13:39:31.248Z,10.00
2019-03-18T13:42:01.320Z,10.40
2019-03-18T13:44:31.500Z,10.60
2019-03-18T13:47:07.583Z,10.50
2019-03-18T13:49:44.996Z,9.70
2019-03-18T13:52:15.096Z,8.90
2019-03-18T13:54:46.056Z,8.40
2019-03-18T13:57:16.168Z,8.10
2019-03-18T13:59:47.196Z,8.00
2019-03-18T14:02:17.272Z,7.80
2019-03-18T14:04:49.352Z,7.70
2019-03-18T14:07:22.517Z,7.80
2019-03-18T14:09:59.548Z,7.90
2019-03-18T14:12:32.290Z,8.10
2019-03-18T14:15:18.941Z,8.40
2019-03-18T14:17:50.220Z,9.60
2019-03-18T14:20:28.988Z,10.60
2019-03-18T14:22:59.084Z,10.20
2019-03-18T14:25:35.001Z,10.30
2019-03-18T14:28:05.997Z,10.90
2019-03-18T14:30:36.093Z,10.20
2019-03-18T14:33:07.184Z,11.00
2019-03-18T14:35:41.401Z,12.80
2019-03-18T14:38:11.529Z,15.70
2019-03-18T14:40:42.545Z,13.90
2019-03-18T14:43:12.636Z,13.70
2019-03-18T14:45:43.708Z,12.60
2019-03-18T14:48:14.724Z,14.40
2019-03-18T14:50:47.544Z,15.20
2019-03-18T14:53:17.634Z,13.90
2019-03-18T14:55:48.684Z,11.50
2019-03-18T14:58:20.696Z,10.00
2019-03-18T15:00:51.760Z,8.80
2019-03-18T15:03:21.855Z,8.00
2019-03-18T15:05:56.565Z,7.70
2019-03-18T15:08:27.592Z,7.40
2019-03-18T15:11:02.619Z,7.20
2019-03-18T15:13:32.679Z,7.10
2019-03-18T15:16:04.764Z,7.20
2019-03-18T15:18:34.833Z,7.50
2019-03-18T15:21:04.910Z,7.60
2019-03-18T15:23:34.996Z,7.50
2019-03-18T15:26:05.391Z,7.50
2019-03-18T15:28:41.542Z,7.40
2019-03-18T15:31:11.596Z,7.30
2019-03-18T15:33:42.693Z,7.30
2019-03-18T15:36:14.162Z,7.10
2019-03-18T15:38:50.176Z,6.90
2019-03-18T15:41:22.242Z,6.70
2019-03-18T15:44:00.078Z,6.60
2019-03-18T15:46:41.129Z,7.30
2019-03-18T15:49:14.349Z,7.40
2019-03-18T15:51:44.440Z,7.50
2019-03-18T15:54:16.501Z,8.30
2019-03-18T15:56:47.581Z,8.60
2019-03-18T15:59:17.668Z,8.40
2019-03-18T16:01:48.133Z,8.80
2019-03-18T16:04:21.406Z,10.70
2019-03-18T16:06:51.495Z,12.20
2019-03-18T16:09:24.604Z,13.00
2019-03-18T16:11:54.712Z,13.60
2019-03-18T16:14:25.158Z,14.10
2019-03-18T16:17:01.965Z,13.10
2019-03-18T16:19:28.245Z,11.20
2019-03-18T16:21:59.318Z,9.90
2019-03-18T16:24:29.413Z,9.10
2019-03-18T16:27:06.308Z,9.00
2019-03-18T16:29:36.364Z,9.30
2019-03-18T16:32:11.557Z,8.80
2019-03-18T16:34:41.213Z,8.20
2019-03-18T16:37:11.352Z,7.70
2019-03-18T16:39:45.580Z,7.00
2019-03-18T16:42:16.684Z,6.40
2019-03-18T16:44:52.560Z,5.90
2019-03-18T16:47:22.719Z,5.50
2019-03-18T16:49:52.804Z,5.20
2019-03-18T16:52:34.927Z,4.90
2019-03-18T16:54:56.648Z,4.80
2019-03-18T16:57:29.817Z,4.70
2019-03-18T17:00:16.409Z,4.70
2019-03-18T17:02:48.480Z,4.50
2019-03-18T17:05:18.629Z,4.20
2019-03-18T17:07:49.631Z,4.00
2019-03-18T17:10:19.781Z,3.90
2019-03-18T17:12:52.609Z,3.80
2019-03-18T17:15:24.608Z,3.80
2019-03-18T17:17:55.704Z,3.60
2019-03-18T17:20:25.749Z,3.50
2019-03-18T17:22:56.829Z,3.30
2019-03-18T17:25:30.316Z,3.10
2019-03-18T17:28:00.456Z,2.90
2019-03-18T17:30:34.655Z,2.80
2019-03-18T17:33:10.692Z,2.60
2019-03-18T17:35:43.966Z,2.40
2019-03-18T17:38:14.044Z,2.20
2019-03-18T17:40:48.628Z,2.00
2019-03-18T17:43:18.704Z,1.90
2019-03-18T17:45:48.806Z,1.90
2019-03-18T17:48:18.884Z,1.80
2019-03-18T17:50:49.006Z,1.80
2019-03-18T17:53:20.032Z,1.80
2019-03-18T17:55:51.193Z,1.90
2019-03-18T17:58:22.227Z,1.90
2019-03-18T18:01:00.064Z,2.00
2019-03-18T18:03:30.137Z,2.00
2019-03-18T18:06:00.233Z,2.10
2019-03-18T18:08:30.328Z,2.10
2019-03-18T18:11:00.458Z,2.00
2019-03-18T18:13:39.725Z,2.00
2019-03-18T18:16:09.824Z,2.10
2019-03-18T18:18:49.440Z,2.10
2019-03-18T18:21:20.532Z,2.10
2019-03-18T18:23:50.631Z,2.10
2019-03-18T18:26:27.480Z,2.20
2019-03-18T18:28:57.545Z,2.30
2019-03-18T18:31:27.624Z,2.50
2019-03-18T18:34:03.728Z,2.60
2019-03-18T18:36:39.703Z,2.70
2019-03-18T18:39:09.836Z,2.80
2019-03-18T18:41:41.872Z,2.80
2019-03-18T18:44:11.940Z,2.80
2019-03-18T18:46:45.076Z,2.80
2019-03-18T18:49:15.252Z,2.80
2019-03-18T18:51:45.405Z,2.80
2019-03-18T18:54:15.488Z,2.80
2019-03-18T18:56:46.580Z,2.70
2019-03-18T18:59:19.403Z,2.60
2019-03-18T19:01:50.982Z,2.40
2019-03-18T19:04:22.032Z,2.30
2019-03-18T19:06:59.048Z,2.20
2019-03-18T19:09:31.770Z,2.10
2019-03-18T19:12:01.916Z,2.10
2019-03-18T19:14:44.133Z,2.00
2019-03-18T19:17:15.144Z,1.90
2019-03-18T19:19:47.236Z,1.70
2019-03-18T19:22:18.256Z,1.60
2019-03-18T19:24:48.363Z,1.50
2019-03-18T19:27:19.432Z,1.50
2019-03-18T19:29:49.528Z,1.40
2019-03-18T19:32:30.683Z,1.40
2019-03-18T19:35:00.769Z,1.30
2019-03-18T19:37:31.781Z,1.20
2019-03-18T19:40:01.872Z,1.00
2019-03-18T19:42:32.944Z,0.90
2019-03-18T19:45:04.524Z,0.80
2019-03-18T19:47:34.620Z,0.80
2019-03-18T19:50:11.600Z,0.70
2019-03-18T19:52:43.657Z,0.70
2019-03-18T19:55:14.134Z,0.60
2019-03-18T19:57:44.213Z,0.60
2019-03-18T20:00:21.668Z,0.70
2019-03-18T20:02:51.772Z,0.50
2019-03-18T20:05:21.934Z,0.50
2019-03-18T20:07:53.116Z,0.50
2019-03-18T20:10:24.217Z,0.60
2019-03-18T20:12:54.485Z,0.60
2019-03-18T20:15:24.568Z,0.40
2019-03-18T20:17:55.603Z,0.30
2019-03-18T20:20:25.793Z,0.10
2019-03-18T20:23:04.737Z,0.10
2019-03-18T20:25:37.840Z,0.00
2019-03-18T20:28:07.924Z,0.00
2019-03-18T20:30:38.197Z,-0.10
2019-03-18T20:33:09.836Z,-0.20
2019-03-18T20:35:39.920Z,-0.10
2019-03-18T20:38:10.181Z,0.00
2019-03-18T20:40:40.468Z,-0.10
2019-03-18T20:43:11.757Z,-0.20
2019-03-18T20:45:44.000Z,-0.30
2019-03-18T20:48:17.260Z,-0.30
2019-03-18T20:50:47.332Z,-0.30
2019-03-18T20:53:18.703Z,-0.30
2019-03-18T20:55:49.888Z,-0.30
2019-03-18T20:58:21.976Z,-0.20
2019-03-18T21:00:53.122Z,-0.20
2019-03-18T21:03:23.228Z,-0.30
2019-03-18T21:05:53.456Z,-0.40
2019-03-18T21:08:23.744Z,-0.40
2019-03-18T21:10:54.592Z,-0.30
2019-03-18T21:13:24.708Z,-0.40
2019-03-18T21:15:54.772Z,-0.60
2019-03-18T21:18:24.861Z,-0.70
2019-03-18T21:20:55.904Z,-0.80
2019-03-18T21:23:31.698Z,-0.90
2019-03-18T21:26:01.856Z,-0.80
2019-03-18T21:28:40.783Z,-0.80
2019-03-18T21:31:06.760Z,-0.80
2019-03-18T21:33:38.745Z,-0.70
2019-03-18T21:36:09.836Z,-0.80
2019-03-18T21:38:40.872Z,-0.80
2019-03-18T21:41:16.804Z,-0.80
2019-03-18T21:43:49.955Z,-0.70
2019-03-18T21:46:20.946Z,-0.50
2019-03-18T21:48:52.032Z,-0.50
2019-03-18T21:51:22.140Z,-0.40
2019-03-18T21:53:57.966Z,-0.40
2019-03-18T21:56:28.149Z,-0.40
2019-03-18T21:59:02.016Z,-0.40
2019-03-18T22:01:32.180Z,-0.40
2019-03-18T22:04:02.256Z,-0.50
2019-03-18T22:06:32.364Z,-0.60
2019-03-18T22:09:06.941Z,-0.70
2019-03-18T22:11:37.077Z,-0.80
2019-03-18T22:14:09.060Z,-0.90
2019-03-18T22:16:42.352Z,-0.90
2019-03-18T22:19:12.441Z,-1.00
2019-03-18T22:21:42.548Z,-1.10
2019-03-18T22:24:20.601Z,-1.20
2019-03-18T22:26:51.256Z,-1.20
2019-03-18T22:29:21.412Z,-1.30
2019-03-18T22:32:00.380Z,-1.20
2019-03-18T22:34:30.513Z,-0.90
2019-03-18T22:37:00.666Z,-0.80
2019-03-18T22:39:31.708Z,-0.90
2019-03-18T22:42:01.753Z,-0.90
2019-03-18T22:44:31.884Z,-1.00
2019-03-18T22:47:07.009Z,-1.20
2019-03-18T22:49:38.060Z,-1.30
2019-03-18T22:52:11.820Z,-1.10
2019-03-18T22:54:41.913Z,-1.00
2019-03-18T22:57:12.206Z,-1.00
2019-03-18T22:59:44.812Z,-0.90
2019-03-18T23:02:15.268Z,-0.90
2019-03-18T23:04:46.378Z,-0.90
2019-03-18T23:07:18.405Z,-1.00
2019-03-18T23:09:55.400Z,-1.10
2019-03-18T23:12:25.644Z,-1.00
2019-03-18T23:14:55.738Z,-1.10
2019-03-18T23:17:26.864Z,-1.20
2019-03-18T23:19:57.945Z,-1.20
2019-03-18T23:22:28.056Z,-1.30
2019-03-18T23:25:06.941Z,-1.40
2019-03-18T23:27:30.943Z,-1.40
2019-03-18T23:30:01.989Z,-1.50
2019-03-18T23:32:32.112Z,-1.60
2019-03-18T23:35:02.212Z,-1.70
2019-03-18T23:37:32.320Z,-1.60
2019-03-18T23:40:02.488Z,-1.70
2019-03-18T23:42:32.684Z,-1.80
2019-03-18T23:45:02.854Z,-1.80
2019-03-18T23:47:34.161Z,-1.60
2019-03-18T23:50:07.367Z,-1.50
2019-03-18T23:52:39.456Z,-1.60
2019-03-18T23:55:19.016Z,-1.60
2019-03-18T23:57:43.258Z,-1.60
